<?xml version='1.0' encoding='UTF-8'?><gpx version="1.1" creator="JPX - https://github.com/jenetics/jpx" xmlns="http://www.topografix.com/GPX/1/1"><trk><trkseg><trkpt lat="41.9453374" lon="12.5486631"><ele>47.0</ele><time>2026-04-20T06:15:35.297Z</time></trkpt><trkpt lat="41.9452719" lon="12.5487727"><ele>47.0</ele><time>2026-04-20T06:15:46.699Z</time></trkpt><trkpt lat="41.9451393" lon="12.548797"><ele>47.0</ele><time>2026-04-20T06:15:47.7Z</time></trkpt><trkpt lat="41.9450459" lon="12.5487831"><ele>47.0</ele><time>2026-04-20T06:15:50.7Z</time></trkpt><trkpt lat="41.9449806" lon="12.5487408"><ele>47.0</ele><time>2026-04-20T06:15:53.7Z</time></trkpt><trkpt lat="41.9449062" lon="12.5486928"><ele>47.0</ele><time>2026-04-20T06:15:56.699Z</time></trkpt><trkpt lat="41.9448338" lon="12.5486911"><ele>47.0</ele><time>2026-04-20T06:15:59.7Z</time></trkpt><trkpt lat="41.9437183" lon="12.5448917"><ele>40.0</ele><time>2026-04-20T06:20:53.282Z</time></trkpt><trkpt lat="41.9437603" lon="12.544395"><ele>33.0</ele><time>2026-04-20T06:20:54.782Z</time></trkpt><trkpt lat="41.9437322" lon="12.5437823"><ele>32.666666666666664</ele><time>2026-04-20T06:20:55.781Z</time></trkpt><trkpt lat="41.943747" lon="12.54354"><ele>32.33333333333333</ele><time>2026-04-20T06:20:56.782Z</time></trkpt><trkpt lat="41.9437523" lon="12.5433791"><ele>32.0</ele><time>2026-04-20T06:20:57.782Z</time></trkpt><trkpt lat="41.9438062" lon="12.5431354"><ele>32.0</ele><time>2026-04-20T06:21:01.699Z</time></trkpt><trkpt lat="41.9439696" lon="12.5431503"><ele>32.0</ele><time>2026-04-20T06:21:06.7Z</time></trkpt><trkpt lat="41.943916" lon="12.5430694"><ele>32.0</ele><time>2026-04-20T06:21:13.7Z</time></trkpt><trkpt lat="41.9439018" lon="12.5429785"><ele>32.0</ele><time>2026-04-20T06:21:17.7Z</time></trkpt><trkpt lat="41.9439101" lon="12.5428774"><ele>32.0</ele><time>2026-04-20T06:21:21.7Z</time></trkpt><trkpt lat="41.9439287" lon="12.5427807"><ele>32.285714285714285</ele><time>2026-04-20T06:21:25.7Z</time></trkpt><trkpt lat="41.9439477" lon="12.5426867"><ele>32.57142857142857</ele><time>2026-04-20T06:21:30.7Z</time></trkpt><trkpt lat="41.9439271" lon="12.5425919"><ele>32.857142857142854</ele><time>2026-04-20T06:21:37.7Z</time></trkpt><trkpt lat="41.943861" lon="12.5425524"><ele>33.14285714285714</ele><time>2026-04-20T06:21:42.7Z</time></trkpt><trkpt lat="41.9437839" lon="12.5425495"><ele>33.42857142857143</ele><time>2026-04-20T06:21:47.7Z</time></trkpt><trkpt lat="41.9437216" lon="12.5425243"><ele>33.71428571428571</ele><time>2026-04-20T06:21:52.7Z</time></trkpt><trkpt lat="41.9436673" lon="12.5424739"><ele>34.0</ele><time>2026-04-20T06:21:56.7Z</time></trkpt><trkpt lat="41.9436087" lon="12.5424282"><ele>33.99999999999999</ele><time>2026-04-20T06:22:01.699Z</time></trkpt><trkpt lat="41.9435906" lon="12.5423357"><ele>34.0</ele><time>2026-04-20T06:22:06.699Z</time></trkpt><trkpt lat="41.9435861" lon="12.5422369"><ele>34.0</ele><time>2026-04-20T06:22:10.7Z</time></trkpt><trkpt lat="41.9435879" lon="12.5421436"><ele>34.0</ele><time>2026-04-20T06:22:14.7Z</time></trkpt><trkpt lat="41.9435811" lon="12.5420493"><ele>34.0</ele><time>2026-04-20T06:22:18.7Z</time></trkpt><trkpt lat="41.9435826" lon="12.5419548"><ele>33.99999999999999</ele><time>2026-04-20T06:22:23.7Z</time></trkpt><trkpt lat="41.9435715" lon="12.5418536"><ele>34.0</ele><time>2026-04-20T06:22:28.7Z</time></trkpt><trkpt lat="41.9424951" lon="12.5355618"><ele>36.8</ele><time>2026-04-20T06:28:09.281Z</time></trkpt><trkpt lat="41.9423646" lon="12.5357229"><ele>39.599999999999994</ele><time>2026-04-20T06:28:19.7Z</time></trkpt><trkpt lat="41.9423633" lon="12.5355801"><ele>42.4</ele><time>2026-04-20T06:28:26.7Z</time></trkpt><trkpt lat="41.9423751" lon="12.5354797"><ele>45.199999999999996</ele><time>2026-04-20T06:28:28.7Z</time></trkpt><trkpt lat="41.9423763" lon="12.5353868"><ele>48.0</ele><time>2026-04-20T06:28:33.7Z</time></trkpt><trkpt lat="41.9423938" lon="12.5352618"><ele>47.99999999999999</ele><time>2026-04-20T06:28:36.699Z</time></trkpt><trkpt lat="41.9424292" lon="12.5351876"><ele>48.0</ele><time>2026-04-20T06:28:38.7Z</time></trkpt><trkpt lat="41.9424295" lon="12.5350898"><ele>48.0</ele><time>2026-04-20T06:28:42.7Z</time></trkpt><trkpt lat="41.9424295" lon="12.5349869"><ele>48.0</ele><time>2026-04-20T06:28:46.7Z</time></trkpt><trkpt lat="41.9424096" lon="12.5349012"><ele>48.0</ele><time>2026-04-20T06:28:52.699Z</time></trkpt><trkpt lat="41.9423757" lon="12.534814"><ele>47.99999999999999</ele><time>2026-04-20T06:28:57.699Z</time></trkpt><trkpt lat="41.9423083" lon="12.5347335"><ele>48.0</ele><time>2026-04-20T06:29:00.699Z</time></trkpt><trkpt lat="41.9422504" lon="12.5346826"><ele>47.99999999999999</ele><time>2026-04-20T06:29:02.7Z</time></trkpt><trkpt lat="41.942247" lon="12.534587"><ele>48.0</ele><time>2026-04-20T06:29:07.7Z</time></trkpt><trkpt lat="41.9422868" lon="12.5345113"><ele>48.0</ele><time>2026-04-20T06:29:11.699Z</time></trkpt><trkpt lat="41.9423401" lon="12.5344411"><ele>48.0</ele><time>2026-04-20T06:29:14.7Z</time></trkpt><trkpt lat="41.9423794" lon="12.5343632"><ele>48.0</ele><time>2026-04-20T06:29:18.7Z</time></trkpt><trkpt lat="41.9424158" lon="12.5342881"><ele>47.99999999999999</ele><time>2026-04-20T06:29:22.7Z</time></trkpt><trkpt lat="41.9424687" lon="12.5342402"><ele>48.0</ele><time>2026-04-20T06:29:26.7Z</time></trkpt><trkpt lat="41.9425242" lon="12.5341874"><ele>47.857142857142854</ele><time>2026-04-20T06:29:31.7Z</time></trkpt><trkpt lat="41.9425669" lon="12.5341224"><ele>47.714285714285715</ele><time>2026-04-20T06:29:35.7Z</time></trkpt><trkpt lat="41.9425937" lon="12.5340323"><ele>47.57142857142857</ele><time>2026-04-20T06:29:41.699Z</time></trkpt><trkpt lat="41.9426395" lon="12.5339544"><ele>47.42857142857143</ele><time>2026-04-20T06:29:46.7Z</time></trkpt><trkpt lat="41.9426719" lon="12.5338742"><ele>47.285714285714285</ele><time>2026-04-20T06:29:50.7Z</time></trkpt><trkpt lat="41.9426944" lon="12.5337865"><ele>47.14285714285714</ele><time>2026-04-20T06:29:55.7Z</time></trkpt><trkpt lat="41.9427164" lon="12.5336916"><ele>47.0</ele><time>2026-04-20T06:30:00.699Z</time></trkpt><trkpt lat="41.9427015" lon="12.5335917"><ele>47.285714285714285</ele><time>2026-04-20T06:30:06.7Z</time></trkpt><trkpt lat="41.942677" lon="12.5335024"><ele>47.57142857142857</ele><time>2026-04-20T06:30:10.7Z</time></trkpt><trkpt lat="41.9426678" lon="12.5334136"><ele>47.85714285714286</ele><time>2026-04-20T06:30:15.699Z</time></trkpt><trkpt lat="41.9426458" lon="12.5333152"><ele>48.14285714285714</ele><time>2026-04-20T06:30:20.7Z</time></trkpt><trkpt lat="41.9426588" lon="12.5332137"><ele>48.42857142857143</ele><time>2026-04-20T06:30:25.7Z</time></trkpt><trkpt lat="41.9426727" lon="12.5331139"><ele>48.714285714285715</ele><time>2026-04-20T06:30:29.7Z</time></trkpt><trkpt lat="41.9426378" lon="12.5330207"><ele>49.0</ele><time>2026-04-20T06:30:35.699Z</time></trkpt><trkpt lat="41.9426035" lon="12.5329433"><ele>49.285714285714285</ele><time>2026-04-20T06:30:39.7Z</time></trkpt><trkpt lat="41.9425473" lon="12.5328745"><ele>49.57142857142857</ele><time>2026-04-20T06:30:42.7Z</time></trkpt><trkpt lat="41.9425428" lon="12.5327822"><ele>49.85714285714286</ele><time>2026-04-20T06:30:47.7Z</time></trkpt><trkpt lat="41.9425263" lon="12.5326909"><ele>50.14285714285714</ele><time>2026-04-20T06:30:52.7Z</time></trkpt><trkpt lat="41.9425088" lon="12.5325933"><ele>50.42857142857143</ele><time>2026-04-20T06:30:57.7Z</time></trkpt><trkpt lat="41.9424812" lon="12.532504"><ele>50.714285714285715</ele><time>2026-04-20T06:31:01.7Z</time></trkpt><trkpt lat="41.9424475" lon="12.5324258"><ele>51.0</ele><time>2026-04-20T06:31:05.7Z</time></trkpt><trkpt lat="41.9424263" lon="12.5323398"><ele>51.0</ele><time>2026-04-20T06:31:11.699Z</time></trkpt><trkpt lat="41.94242" lon="12.5322479"><ele>51.0</ele><time>2026-04-20T06:31:17.7Z</time></trkpt><trkpt lat="41.9424284" lon="12.5321483"><ele>51.0</ele><time>2026-04-20T06:31:23.7Z</time></trkpt><trkpt lat="41.942431" lon="12.5320608"><ele>51.0</ele><time>2026-04-20T06:31:27.699Z</time></trkpt><trkpt lat="41.9424646" lon="12.5319869"><ele>51.0</ele><time>2026-04-20T06:31:30.699Z</time></trkpt><trkpt lat="41.9424677" lon="12.5319002"><ele>51.0</ele><time>2026-04-20T06:31:34.7Z</time></trkpt><trkpt lat="41.9424313" lon="12.531816"><ele>51.0</ele><time>2026-04-20T06:31:38.7Z</time></trkpt><trkpt lat="41.9424577" lon="12.5317215"><ele>50.42857142857143</ele><time>2026-04-20T06:31:43.7Z</time></trkpt><trkpt lat="41.9424703" lon="12.5316194"><ele>49.85714285714286</ele><time>2026-04-20T06:31:48.7Z</time></trkpt><trkpt lat="41.9424788" lon="12.5315331"><ele>49.285714285714285</ele><time>2026-04-20T06:31:53.699Z</time></trkpt><trkpt lat="41.9424387" lon="12.5314541"><ele>48.714285714285715</ele><time>2026-04-20T06:31:58.7Z</time></trkpt><trkpt lat="41.9424686" lon="12.5313742"><ele>48.14285714285714</ele><time>2026-04-20T06:32:02.7Z</time></trkpt><trkpt lat="41.9424885" lon="12.5312806"><ele>47.57142857142857</ele><time>2026-04-20T06:32:07.7Z</time></trkpt><trkpt lat="41.9424758" lon="12.5311856"><ele>47.0</ele><time>2026-04-20T06:32:12.699Z</time></trkpt><trkpt lat="41.9424407" lon="12.5310862"><ele>45.0</ele><time>2026-04-20T06:32:17.7Z</time></trkpt><trkpt lat="41.9423897" lon="12.5310305"><ele>43.0</ele><time>2026-04-20T06:32:20.699Z</time></trkpt><trkpt lat="41.9423483" lon="12.5309517"><ele>41.0</ele><time>2026-04-20T06:32:25.7Z</time></trkpt><trkpt lat="41.9387523" lon="12.5264582"><ele>39.666666666666664</ele><time>2026-04-20T06:38:04.265Z</time></trkpt><trkpt lat="41.9386947" lon="12.5265101"><ele>38.33333333333333</ele><time>2026-04-20T06:38:06.265Z</time></trkpt><trkpt lat="41.9386278" lon="12.5264769"><ele>37.0</ele><time>2026-04-20T06:38:10.698Z</time></trkpt><trkpt lat="41.9385512" lon="12.5263992"><ele>35.666666666666664</ele><time>2026-04-20T06:38:13.698Z</time></trkpt><trkpt lat="41.9385216" lon="12.5263032"><ele>34.333333333333336</ele><time>2026-04-20T06:38:18.699Z</time></trkpt><trkpt lat="41.9385074" lon="12.5262016"><ele>33.0</ele><time>2026-04-20T06:38:23.699Z</time></trkpt><trkpt lat="41.9384756" lon="12.5261119"><ele>31.857142857142858</ele><time>2026-04-20T06:38:29.699Z</time></trkpt><trkpt lat="41.938403" lon="12.5261053"><ele>30.714285714285715</ele><time>2026-04-20T06:38:35.698Z</time></trkpt><trkpt lat="41.9383266" lon="12.5260841"><ele>29.571428571428573</ele><time>2026-04-20T06:38:40.699Z</time></trkpt><trkpt lat="41.9382587" lon="12.5260576"><ele>28.42857142857143</ele><time>2026-04-20T06:38:45.699Z</time></trkpt><trkpt lat="41.938203" lon="12.5259967"><ele>27.285714285714285</ele><time>2026-04-20T06:38:50.699Z</time></trkpt><trkpt lat="41.9381417" lon="12.5259225"><ele>26.142857142857146</ele><time>2026-04-20T06:38:55.699Z</time></trkpt><trkpt lat="41.9380807" lon="12.5258746"><ele>25.0</ele><time>2026-04-20T06:38:59.699Z</time></trkpt><trkpt lat="41.9380146" lon="12.5258281"><ele>24.42857142857143</ele><time>2026-04-20T06:39:04.699Z</time></trkpt><trkpt lat="41.9379659" lon="12.5257697"><ele>23.857142857142858</ele><time>2026-04-20T06:39:08.699Z</time></trkpt><trkpt lat="41.9379106" lon="12.5257104"><ele>23.285714285714285</ele><time>2026-04-20T06:39:12.699Z</time></trkpt><trkpt lat="41.9378574" lon="12.5256604"><ele>22.714285714285715</ele><time>2026-04-20T06:39:17.699Z</time></trkpt><trkpt lat="41.9378075" lon="12.525584"><ele>22.142857142857142</ele><time>2026-04-20T06:39:22.699Z</time></trkpt><trkpt lat="41.9377519" lon="12.5255328"><ele>21.571428571428573</ele><time>2026-04-20T06:39:26.698Z</time></trkpt><trkpt lat="41.9377019" lon="12.5254684"><ele>21.0</ele><time>2026-04-20T06:39:30.698Z</time></trkpt><trkpt lat="41.9376636" lon="12.525388"><ele>20.714285714285715</ele><time>2026-04-20T06:39:35.698Z</time></trkpt><trkpt lat="41.9376234" lon="12.5252932"><ele>20.42857142857143</ele><time>2026-04-20T06:39:40.699Z</time></trkpt><trkpt lat="41.9375776" lon="12.5252225"><ele>20.142857142857142</ele><time>2026-04-20T06:39:44.699Z</time></trkpt><trkpt lat="41.9375223" lon="12.525175"><ele>19.857142857142858</ele><time>2026-04-20T06:39:48.698Z</time></trkpt><trkpt lat="41.9374642" lon="12.5251267"><ele>19.571428571428573</ele><time>2026-04-20T06:39:53.699Z</time></trkpt><trkpt lat="41.9373941" lon="12.5250839"><ele>19.285714285714285</ele><time>2026-04-20T06:39:58.698Z</time></trkpt><trkpt lat="41.9373231" lon="12.5250616"><ele>19.0</ele><time>2026-04-20T06:40:02.698Z</time></trkpt><trkpt lat="41.9372759" lon="12.5249823"><ele>19.71428571428571</ele><time>2026-04-20T06:40:07.699Z</time></trkpt><trkpt lat="41.9372267" lon="12.5249262"><ele>20.42857142857143</ele><time>2026-04-20T06:40:12.699Z</time></trkpt><trkpt lat="41.9371605" lon="12.5248747"><ele>21.142857142857142</ele><time>2026-04-20T06:40:18.699Z</time></trkpt><trkpt lat="41.9370867" lon="12.524844"><ele>21.857142857142854</ele><time>2026-04-20T06:40:22.699Z</time></trkpt><trkpt lat="41.9370222" lon="12.5248011"><ele>22.57142857142857</ele><time>2026-04-20T06:40:27.698Z</time></trkpt><trkpt lat="41.9369691" lon="12.5247504"><ele>23.285714285714285</ele><time>2026-04-20T06:40:31.699Z</time></trkpt><trkpt lat="41.9369159" lon="12.5246954"><ele>24.0</ele><time>2026-04-20T06:40:35.699Z</time></trkpt><trkpt lat="41.9368693" lon="12.5246238"><ele>23.999999999999996</ele><time>2026-04-20T06:40:39.699Z</time></trkpt><trkpt lat="41.9368198" lon="12.5245631"><ele>24.0</ele><time>2026-04-20T06:40:43.699Z</time></trkpt><trkpt lat="41.936773" lon="12.5244925"><ele>24.0</ele><time>2026-04-20T06:40:49.699Z</time></trkpt><trkpt lat="41.9367213" lon="12.5244286"><ele>24.0</ele><time>2026-04-20T06:40:55.699Z</time></trkpt><trkpt lat="41.9366755" lon="12.5243575"><ele>24.0</ele><time>2026-04-20T06:41:00.698Z</time></trkpt><trkpt lat="41.9366234" lon="12.524304"><ele>23.999999999999996</ele><time>2026-04-20T06:41:04.699Z</time></trkpt><trkpt lat="41.9365747" lon="12.524234"><ele>24.0</ele><time>2026-04-20T06:41:09.698Z</time></trkpt><trkpt lat="41.9365141" lon="12.5241718"><ele>23.999999999999996</ele><time>2026-04-20T06:41:13.699Z</time></trkpt><trkpt lat="41.9364595" lon="12.5241023"><ele>24.0</ele><time>2026-04-20T06:41:17.699Z</time></trkpt><trkpt lat="41.9364049" lon="12.5240474"><ele>24.0</ele><time>2026-04-20T06:41:21.699Z</time></trkpt><trkpt lat="41.9363621" lon="12.5239788"><ele>24.0</ele><time>2026-04-20T06:41:25.699Z</time></trkpt><trkpt lat="41.9363178" lon="12.523917"><ele>24.0</ele><time>2026-04-20T06:41:29.699Z</time></trkpt><trkpt lat="41.9362771" lon="12.5238453"><ele>23.999999999999996</ele><time>2026-04-20T06:41:34.699Z</time></trkpt><trkpt lat="41.9362226" lon="12.5237735"><ele>24.0</ele><time>2026-04-20T06:41:39.699Z</time></trkpt><trkpt lat="41.9361753" lon="12.5237048"><ele>23.999999999999996</ele><time>2026-04-20T06:41:43.699Z</time></trkpt><trkpt lat="41.9361304" lon="12.5236265"><ele>24.0</ele><time>2026-04-20T06:41:48.699Z</time></trkpt><trkpt lat="41.9360638" lon="12.5235859"><ele>24.0</ele><time>2026-04-20T06:41:53.699Z</time></trkpt><trkpt lat="41.9360259" lon="12.5236648"><ele>24.0</ele><time>2026-04-20T06:41:59.699Z</time></trkpt><trkpt lat="41.9360541" lon="12.5237546"><ele>24.0</ele><time>2026-04-20T06:42:05.699Z</time></trkpt><trkpt lat="41.9360765" lon="12.5238367"><ele>23.999999999999996</ele><time>2026-04-20T06:42:10.698Z</time></trkpt><trkpt lat="41.9360901" lon="12.5239245"><ele>24.0</ele><time>2026-04-20T06:42:16.699Z</time></trkpt><trkpt lat="41.9360243" lon="12.5239446"><ele>23.999999999999996</ele><time>2026-04-20T06:42:23.698Z</time></trkpt><trkpt lat="41.935968" lon="12.5238822"><ele>24.0</ele><time>2026-04-20T06:42:27.699Z</time></trkpt><trkpt lat="41.9359119" lon="12.5238097"><ele>24.0</ele><time>2026-04-20T06:42:31.699Z</time></trkpt><trkpt lat="41.9358517" lon="12.5237463"><ele>24.0</ele><time>2026-04-20T06:42:36.699Z</time></trkpt><trkpt lat="41.9358008" lon="12.5236919"><ele>24.0</ele><time>2026-04-20T06:42:41.699Z</time></trkpt><trkpt lat="41.9357523" lon="12.52363"><ele>23.999999999999996</ele><time>2026-04-20T06:42:46.699Z</time></trkpt><trkpt lat="41.9356989" lon="12.5235745"><ele>24.0</ele><time>2026-04-20T06:42:51.698Z</time></trkpt><trkpt lat="41.9356567" lon="12.5235093"><ele>20.0</ele><time>2026-04-20T06:42:55.699Z</time></trkpt><trkpt lat="41.9356034" lon="12.5234435"><ele>20.0</ele><time>2026-04-20T06:42:59.699Z</time></trkpt><trkpt lat="41.9355412" lon="12.5234031"><ele>20.0</ele><time>2026-04-20T06:43:03.698Z</time></trkpt><trkpt lat="41.9354786" lon="12.5233503"><ele>20.0</ele><time>2026-04-20T06:43:08.699Z</time></trkpt></trkseg><trkseg><trkpt lat="41.934885" lon="12.5185416"><ele>83.6</ele><time>2026-04-20T06:52:40.7Z</time></trkpt></trkseg></trk></gpx>